Time;durP1;ratioP1;P1;durP2;ratioP2;P2;SDS_P1;SDS_P2;PMS_P1;PMS_P2;Temp;Humidity;BMP_temperature;BMP_pressure;BME280_temperature;BME280_humidity;BME280_pressure;Samples;Min_cycle;Max_cycle;Signal;HPM_P1;HPM_P2
2021/03/09 00:00:51;;;;;;;59.48;21.25;;;;;;;-4.82;72.82;100842.19;1798658;79;25257;-60
2021/03/09 00:03:17;;;;;;;55.88;21.17;;;;;;;-4.83;72.94;100845.86;1791668;79;25750;-61
2021/03/09 00:05:44;;;;;;;58.85;21.97;;;;;;;-4.85;72.90;100844.73;1785988;80;25243;-62
2021/03/09 00:08:13;;;;;;;63.28;26.68;;;;;;;-4.86;73.07;100848.36;1786065;80;25320;-61
2021/03/09 00:10:41;;;;;;;90.40;38.17;;;;;;;-4.86;73.16;100853.64;1786270;80;25412;-61
2021/03/09 00:13:07;;;;;;;55.38;25.27;;;;;;;-4.89;73.12;100846.10;1786220;80;25269;-61
2021/03/09 00:15:34;;;;;;;43.78;20.37;;;;;;;-4.90;73.17;100845.30;1786186;80;25686;-61
2021/03/09 00:18:01;;;;;;;37.58;16.80;;;;;;;-4.93;73.19;100848.31;1786188;80;25475;-61
2021/03/09 00:20:28;;;;;;;37.00;14.85;;;;;;;-4.96;73.13;100843.42;1786185;80;25309;-62
2021/03/09 00:22:54;;;;;;;41.28;16.40;;;;;;;-4.98;73.16;100846.76;1786103;80;25473;-62
2021/03/09 00:43:44;;;;;;;36.38;15.25;;;;;;;-5.19;73.55;100849.44;1773636;77;25517;-56
2021/03/09 00:46:11;;;;;;;39.50;16.23;;;;;;;-5.23;73.80;100852.96;1758434;81;26782;-57
2021/03/09 00:48:40;;;;;;;39.88;15.65;;;;;;;-5.26;73.74;100851.53;1758683;81;25495;-57
2021/03/09 00:51:07;;;;;;;44.05;17.12;;;;;;;-5.29;73.60;100859.02;1757953;81;25594;-58
2021/03/09 00:53:34;;;;;;;59.00;25.43;;;;;;;-5.29;73.74;100857.70;1759849;81;25369;-58
2021/03/09 00:56:03;;;;;;;60.12;28.52;;;;;;;-5.33;73.78;100860.38;1758785;81;25574;-58
2021/03/09 00:58:30;;;;;;;45.70;20.37;;;;;;;-5.35;73.73;100859.77;1758814;81;26558;-58
2021/03/09 01:00:57;;;;;;;36.55;16.60;;;;;;;-5.38;73.77;100859.66;1758739;81;25299;-55
2021/03/09 01:03:24;;;;;;;39.48;17.73;;;;;;;-5.39;73.93;100854.57;1758699;81;25570;-54
2021/03/09 01:05:50;;;;;;;41.23;18.37;;;;;;;-5.37;74.02;100852.04;1758658;81;25624;-56
2021/03/09 01:08:17;;;;;;;39.98;17.90;;;;;;;-5.37;73.97;100853.36;1758688;81;25579;-58
2021/03/09 01:10:44;;;;;;;46.80;19.07;;;;;;;-5.36;74.01;100853.68;1758710;81;25782;-58
2021/03/09 01:13:11;;;;;;;50.60;19.35;;;;;;;-5.35;74.08;100851.85;1758629;81;25273;-58
2021/03/09 01:15:38;;;;;;;44.03;17.37;;;;;;;-5.36;74.21;100851.05;1758501;81;25306;-56
2021/03/09 01:18:05;;;;;;;47.48;17.90;;;;;;;-5.35;74.33;100845.26;1758716;81;25558;-58
2021/03/09 01:20:32;;;;;;;45.43;18.30;;;;;;;-5.33;74.36;100847.20;1758750;81;25334;-58
2021/03/09 01:22:59;;;;;;;45.40;19.95;;;;;;;-5.33;74.43;100849.84;1758724;81;26559;-58
2021/03/09 01:25:26;;;;;;;50.23;21.52;;;;;;;-5.33;74.43;100850.67;1758671;81;25330;-58
2021/03/09 01:27:52;;;;;;;55.03;21.93;;;;;;;-5.33;74.39;100850.67;1758709;81;25270;-58
2021/03/09 01:30:21;;;;;;;52.50;20.95;;;;;;;-5.32;74.32;100845.69;1758356;81;25483;-59
2021/03/09 01:32:49;;;;;;;49.08;20.52;;;;;;;-5.32;74.32;100852.80;1758844;81;25590;-58
2021/03/09 01:35:16;;;;;;;49.73;19.27;;;;;;;-5.32;74.32;100851.48;1758788;81;26802;-58
2021/03/09 01:37:44;;;;;;;50.58;20.92;;;;;;;-5.33;74.22;100848.52;1758273;81;25586;-58
2021/03/09 01:40:12;;;;;;;48.08;21.23;;;;;;;-5.36;74.16;100852.36;1758701;81;25598;-58
2021/03/09 01:42:39;;;;;;;57.93;20.35;;;;;;;-5.37;74.21;100842.81;1758749;81;25507;-57
2021/03/09 01:45:08;;;;;;;44.35;19.05;;;;;;;-5.38;74.26;100842.52;1758363;81;25592;-59
2021/03/09 01:47:45;;;;;;;51.55;18.77;;;;;;;-5.38;74.38;100837.72;1758969;81;26539;-59
2021/03/09 01:50:15;;;;;;;47.50;18.70;;;;;;;-5.39;74.35;100843.52;1758493;81;25282;-58
2021/03/09 01:52:46;;;;;;;43.20;16.45;;;;;;;-5.39;74.36;100846.15;1759029;81;25569;-58
2021/03/09 01:55:14;;;;;;;50.92;19.50;;;;;;;-5.39;74.38;100844.02;1758804;81;25503;-58
2021/03/09 01:57:42;;;;;;;42.30;17.30;;;;;;;-5.40;74.37;100851.61;1758819;81;25511;-58
2021/03/09 02:00:11;;;;;;;40.00;17.00;;;;;;;-5.41;74.41;100851.28;1758984;81;25770;-59
2021/03/09 02:02:38;;;;;;;35.33;14.75;;;;;;;-5.42;74.38;100854.43;1759093;81;25578;-58
2021/03/09 02:05:11;;;;;;;42.75;17.87;;;;;;;-5.44;74.45;100858.57;1758798;81;25580;-59
2021/03/09 02:07:38;;;;;;;46.45;17.80;;;;;;;-5.44;74.39;100857.77;1758946;81;25279;-59
2021/03/09 02:10:11;;;;;;;41.53;17.55;;;;;;;-5.46;74.41;100859.78;1759044;81;25560;-58
2021/03/09 02:13:27;;;;;;;37.23;17.25;;;;;;;-5.47;74.46;100860.77;1759187;81;25703;-57
2021/03/09 02:16:20;;;;;;;40.28;18.98;;;;;;;-5.46;74.55;100857.95;1757824;81;25665;-57
2021/03/09 02:19:03;;;;;;;45.25;20.50;;;;;;;-5.47;74.66;100860.27;1758477;81;25463;-58
2021/03/09 02:21:58;;;;;;;44.20;19.57;;;;;;;-5.49;74.69;100860.16;1757968;81;25488;-58
2021/03/09 02:24:40;;;;;;;40.48;16.35;;;;;;;-5.51;74.61;100858.22;1758218;81;25542;-55
2021/03/09 02:27:29;;;;;;;38.15;16.05;;;;;;;-5.51;74.53;100862.17;1759237;81;25811;-58
2021/03/09 02:30:14;;;;;;;;;;;;;;;-5.54;74.57;100863.34;1761815;81;25447;-58
2021/03/09 02:33:04;;;;;;;35.60;14.70;;;;;;;-5.57;74.65;100861.08;1759362;81;25483;-59
2021/03/09 02:35:32;;;;;;;35.28;14.35;;;;;;;-5.56;74.69;100863.23;1757981;81;25359;-58
2021/03/09 02:38:02;;;;;;;34.95;13.43;;;;;;;-5.58;74.51;100862.58;1759256;81;25451;-58
2021/03/09 02:40:31;;;;;;;37.78;15.58;;;;;;;-5.60;74.40;100867.23;1759658;81;25764;-59
2021/03/09 02:43:02;;;;;;;34.85;15.13;;;;;;;-5.64;74.18;100870.23;1759284;81;25297;-59
2021/03/09 02:45:30;;;;;;;37.83;13.95;;;;;;;-5.67;74.02;100872.44;1758889;81;25636;-59
2021/03/09 02:48:00;;;;;;;30.82;12.37;;;;;;;-5.71;74.03;100870.69;1733464;81;25565;-59
2021/03/09 02:50:28;;;;;;;;;;;;;;;-5.73;73.96;100874.02;1761619;81;25271;-58
2021/03/09 02:53:00;;;;;;;32.20;13.13;;;;;;;-5.75;73.97;100879.98;1758952;81;28029;-59
2021/03/09 02:55:29;;;;;;;30.30;13.05;;;;;;;-5.83;73.87;100878.27;1758900;81;25455;-58
2021/03/09 02:57:58;;;;;;;36.90;14.45;;;;;;;-5.86;73.94;100883.09;1759193;81;25451;-59
2021/03/09 03:00:27;;;;;;;35.25;14.68;;;;;;;-5.90;74.01;100887.92;1759024;81;25261;-57
2021/03/09 03:02:56;;;;;;;35.40;14.67;;;;;;;-5.90;74.10;100884.48;1759240;81;25700;-57
2021/03/09 03:05:24;;;;;;;39.42;17.20;;;;;;;-5.92;74.13;100889.93;1759075;81;25763;-59
2021/03/09 03:07:52;;;;;;;41.90;16.57;;;;;;;-5.95;74.16;100882.39;1758878;81;25325;-59
2021/03/09 03:10:21;;;;;;;38.23;16.60;;;;;;;-5.96;74.08;100892.62;1758955;81;25520;-58
2021/03/09 03:12:50;;;;;;;38.43;14.07;;;;;;;-5.97;74.20;100887.58;1759244;81;25292;-60
2021/03/09 03:15:19;;;;;;;32.55;12.85;;;;;;;-5.99;74.23;100889.08;1733388;81;25487;-57
2021/03/09 03:17:47;;;;;;;32.25;13.70;;;;;;;-6.01;74.24;100881.36;1759223;81;26751;-59
2021/03/09 03:20:18;;;;;;;27.05;13.70;;;;;;;-6.04;74.19;100882.23;1758937;81;25358;-60
2021/03/09 03:22:48;;;;;;;29.95;13.40;;;;;;;-6.06;74.14;100877.14;1759062;81;25282;-58
2021/03/09 03:25:15;;;;;;;33.58;13.68;;;;;;;-6.09;74.02;100880.14;1759025;81;25290;-59
2021/03/09 03:27:46;;;;;;;29.15;13.20;;;;;;;-6.13;74.00;100880.20;1759061;81;25455;-58
2021/03/09 03:30:16;;;;;;;24.55;12.30;;;;;;;-6.13;74.22;100884.16;1758962;81;25783;-59
2021/03/09 03:32:44;;;;;;;31.48;14.28;;;;;;;-6.13;74.20;100884.63;1758834;81;25306;-59
2021/03/09 03:35:13;;;;;;;35.43;13.93;;;;;;;-6.15;74.24;100896.66;1733373;81;25523;-58
2021/03/09 03:37:43;;;;;;;40.25;16.37;;;;;;;-6.18;74.25;100895.71;1759023;81;25081;-59
2021/03/09 03:40:17;;;;;;;34.48;16.40;;;;;;;-6.18;74.27;100896.22;1759132;81;25448;-58
2021/03/09 03:42:45;;;;;;;42.15;21.37;;;;;;;-6.20;74.22;100897.23;1692382;84;25775;-57
2021/03/09 03:45:15;;;;;;;37.63;18.05;;;;;;;-6.21;74.17;100896.10;1722653;83;25530;-58
2021/03/09 03:47:42;;;;;;;36.95;17.35;;;;;;;-6.23;74.23;100901.55;1723005;83;25331;-59
2021/03/09 03:50:13;;;;;;;34.58;17.07;;;;;;;-6.25;74.09;100900.09;1722984;83;25726;-59
2021/03/09 03:52:57;;;;;;;33.63;16.20;;;;;;;-6.29;74.17;100900.95;1723012;83;25530;-60
2021/03/09 03:55:41;;;;;;;28.10;13.53;;;;;;;-6.31;74.26;100892.42;1722995;83;26005;-60
2021/03/09 03:58:46;;;;;;;34.08;14.90;;;;;;;-6.34;74.37;100889.34;1722989;82;25457;-58
2021/03/09 04:01:15;;;;;;;32.88;15.13;;;;;;;-6.35;74.55;100897.75;1662905;85;25488;-59
2021/03/09 04:03:42;;;;;;;28.77;13.28;;;;;;;-6.36;74.64;100894.80;1662957;86;25374;-55
2021/03/09 04:06:10;;;;;;;36.53;13.78;;;;;;;-6.39;74.57;100897.78;1640368;86;25349;-58
2021/03/09 04:08:38;;;;;;;27.82;12.95;;;;;;;-6.40;74.48;100896.97;1662879;86;26721;-58
2021/03/09 04:11:07;;;;;;;29.25;12.35;;;;;;;-6.42;74.48;100898.14;1662847;86;25575;-58
2021/03/09 04:13:37;;;;;;;32.83;14.90;;;;;;;-6.42;74.52;100903.41;1663019;86;25453;-59
2021/03/09 04:16:06;;;;;;;54.42;27.20;;;;;;;-6.44;74.40;100900.95;1662925;86;25421;-59
2021/03/09 04:18:35;;;;;;;43.20;21.50;;;;;;;-6.49;74.14;100895.41;1662887;86;25473;-60
2021/03/09 04:21:02;;;;;;;28.77;13.93;;;;;;;-6.52;74.21;100905.49;1662991;86;26587;-58
2021/03/09 04:23:31;;;;;;;29.55;12.70;;;;;;;-6.54;74.42;100904.36;1640355;86;25411;-57
2021/03/09 04:25:59;;;;;;;29.10;13.28;;;;;;;-6.53;74.43;100902.05;1663352;86;26986;-58
2021/03/09 04:28:27;;;;;;;27.90;12.00;;;;;;;-6.55;74.41;100901.90;1663177;86;25552;-58
2021/03/09 04:30:54;;;;;;;24.32;11.40;;;;;;;-6.59;74.38;100895.70;1662883;86;25415;-59
2021/03/09 04:33:24;;;;;;;32.00;13.45;;;;;;;-6.62;74.45;100893.44;1640331;86;25960;-58
2021/03/09 04:35:51;;;;;;;36.63;17.20;;;;;;;-6.63;74.53;100889.16;1662802;86;25332;-59
2021/03/09 04:38:19;;;;;;;33.90;15.45;;;;;;;-6.62;74.62;100889.99;1698568;83;25505;-60
2021/03/09 04:40:46;;;;;;;32.48;14.43;;;;;;;-6.62;74.79;100891.31;1723007;82;25431;-60
2021/03/09 04:43:12;;;;;;;32.93;14.85;;;;;;;-6.62;74.70;100892.62;1723006;82;25490;-58
2021/03/09 04:45:39;;;;;;;37.85;16.82;;;;;;;-6.63;74.44;100886.52;1722856;83;26669;-58
2021/03/09 04:48:08;;;;;;;36.45;17.23;;;;;;;-6.65;74.39;100889.03;1722851;82;25454;-59
2021/03/09 04:50:37;;;;;;;37.55;16.77;;;;;;;-6.69;74.28;100887.73;1723081;83;27507;-60
2021/03/09 04:53:08;;;;;;;47.00;23.70;;;;;;;-6.71;74.38;100883.16;1722992;83;26128;-59
2021/03/09 04:55:34;;;;;;;57.45;26.17;;;;;;;-6.72;74.52;100890.25;1722966;83;25476;-59
2021/03/09 04:58:01;;;;;;;52.43;23.42;;;;;;;-6.76;74.38;100885.84;1722888;83;28022;-59
2021/03/09 05:00:28;;;;;;;49.70;20.10;;;;;;;-6.78;74.42;100891.77;1722763;83;25497;-59
2021/03/09 05:02:55;;;;;;;53.17;20.50;;;;;;;-6.78;74.45;100889.64;1722963;83;25475;-60
2021/03/09 05:05:24;;;;;;;39.73;17.20;;;;;;;-6.79;74.39;100890.16;1722933;82;25452;-59
2021/03/09 05:07:51;;;;;;;30.88;14.20;;;;;;;-6.80;74.44;100889.82;1723156;83;25336;-60
2021/03/09 05:10:19;;;;;;;26.68;12.05;;;;;;;-6.81;74.32;100889.52;1722889;83;25777;-59
2021/03/09 05:12:48;;;;;;;30.10;13.22;;;;;;;-6.82;74.34;100889.19;1722905;83;25473;-60
2021/03/09 05:15:17;;;;;;;28.38;13.08;;;;;;;-6.83;74.37;100892.80;1723043;82;25442;-60
2021/03/09 05:17:44;;;;;;;28.30;12.45;;;;;;;-6.84;74.12;100897.77;1723123;83;25561;-59
2021/03/09 05:20:13;;;;;;;31.90;12.65;;;;;;;-6.86;74.34;100902.39;1722989;83;25321;-60
2021/03/09 05:22:40;;;;;;;;;;;;;;;-6.85;74.40;100905.83;1725449;83;25741;-60
2021/03/09 05:25:13;;;;;;;32.03;13.35;;;;;;;-6.84;74.60;100908.29;1695388;83;25791;-60
2021/03/09 05:27:41;;;;;;;31.62;12.98;;;;;;;-6.82;74.66;100904.98;1722869;83;25292;-60
2021/03/09 05:30:10;;;;;;;30.57;13.58;;;;;;;-6.78;74.67;100900.17;1722851;83;25528;-59
2021/03/09 05:32:36;;;;;;;28.45;12.88;;;;;;;-6.74;74.84;100900.63;1723000;82;25348;-58
2021/03/09 05:35:06;;;;;;;30.88;13.28;;;;;;;-6.70;75.03;100903.23;1722939;83;25731;-59
2021/03/09 05:37:33;;;;;;;38.35;13.62;;;;;;;-6.66;74.97;100911.87;1722875;83;25319;-59
2021/03/09 05:40:00;;;;;;;25.92;11.57;;;;;;;-6.62;75.13;100909.73;1722885;83;25340;-59
2021/03/09 05:42:26;;;;;;;32.03;14.38;;;;;;;-6.58;75.10;100913.62;1722819;82;25456;-59
2021/03/09 05:44:53;;;;;;;32.53;14.85;;;;;;;-6.54;75.15;100913.56;1722842;83;25513;-59
2021/03/09 05:47:22;;;;;;;37.63;15.13;;;;;;;-6.48;75.10;100916.80;1722809;83;26235;-59
2021/03/09 05:49:49;;;;;;;33.75;14.78;;;;;;;-6.41;75.23;100916.39;1722994;83;25469;-59
2021/03/09 05:52:20;;;;;;;33.25;14.18;;;;;;;-6.31;75.59;100917.95;1722830;83;25516;-58
2021/03/09 05:54:47;;;;;;;36.95;14.45;;;;;;;-6.21;75.66;100914.53;1722836;82;25486;-59
2021/03/09 05:57:14;;;;;;;40.63;13.50;;;;;;;-6.11;75.72;100919.50;1722914;82;25370;-58
2021/03/09 05:59:40;;;;;;;28.47;13.20;;;;;;;-6.00;75.86;100919.04;1722829;83;28110;-60
2021/03/09 06:02:07;;;;;;;33.53;15.38;;;;;;;-5.86;76.04;100926.56;1722742;83;25464;-60
2021/03/09 06:04:35;;;;;;;30.25;14.25;;;;;;;-5.72;76.15;100923.58;1722937;83;25513;-60
2021/03/09 06:07:02;;;;;;;34.53;14.50;;;;;;;-5.58;76.33;100921.89;1722789;82;25281;-59
2021/03/09 06:09:38;;;;;;;31.65;13.68;;;;;;;-5.43;76.36;100921.37;1722948;83;25348;-59
2021/03/09 06:12:16;;;;;;;32.75;14.35;;;;;;;-5.25;76.53;100919.09;1724128;83;25769;-58
2021/03/09 06:14:59;;;;;;;30.50;13.70;;;;;;;-5.07;76.31;100927.07;1722862;83;25661;-60
2021/03/09 06:17:38;;;;;;;33.20;15.13;;;;;;;-4.90;76.49;100928.42;1722856;83;25279;-58
2021/03/09 06:20:19;;;;;;;35.73;15.00;;;;;;;-4.71;76.52;100935.37;1723083;83;25282;-61
2021/03/09 06:22:58;;;;;;;36.70;16.05;;;;;;;-4.52;76.67;100937.31;1722861;83;25485;-61
2021/03/09 06:25:48;;;;;;;34.10;16.55;;;;;;;-4.33;76.71;100941.09;1696376;83;29588;-59
2021/03/09 06:28:14;;;;;;;34.58;16.73;;;;;;;-4.15;76.53;100946.38;1722792;83;25309;-60
2021/03/09 06:30:41;;;;;;;40.12;17.52;;;;;;;-3.97;76.46;100946.68;1696254;83;25460;-61
2021/03/09 06:33:09;;;;;;;40.50;18.98;;;;;;;-3.79;76.41;100945.31;1722793;83;25513;-60
2021/03/09 06:35:43;;;;;;;40.73;19.05;;;;;;;-3.60;76.46;100952.48;1727691;82;25682;-59
2021/03/09 06:38:28;;;;;;;37.60;16.75;;;;;;;-3.42;76.32;100956.42;1736880;82;27069;-60
2021/03/09 06:41:10;;;;;;;39.23;17.85;;;;;;;-3.24;76.35;100958.48;1736580;82;25458;-60
2021/03/09 06:43:44;;;;;;;35.43;16.45;;;;;;;-3.02;76.38;100964.41;1736642;82;25464;-58
2021/03/09 06:46:18;;;;;;;34.38;17.77;;;;;;;-2.79;76.19;100964.03;1734055;82;25361;-62
2021/03/09 06:48:49;;;;;;;33.05;15.35;;;;;;;-2.54;76.37;100971.34;1690376;82;25516;-60
2021/03/09 06:51:31;;;;;;;29.27;13.60;;;;;;;-2.28;76.11;100973.16;1705504;82;25855;-60
2021/03/09 06:54:07;;;;;;;29.15;12.50;;;;;;;-2.00;76.00;100977.36;1717207;82;25590;-60
2021/03/09 06:56:39;;;;;;;24.23;11.65;;;;;;;-1.72;76.01;100977.88;1699213;84;25525;-59
2021/03/09 06:59:32;;;;;;;27.90;11.90;;;;;;;-1.38;75.64;100980.35;1674727;85;25612;-59
2021/03/09 07:02:09;;;;;;;30.05;12.18;;;;;;;-1.09;75.29;100978.14;1754233;79;25522;-65
2021/03/09 07:04:43;;;;;;;23.83;10.80;;;;;;;-0.80;74.59;100975.38;1773148;79;26411;-64
2021/03/09 07:11:09;;;;;;;29.12;12.65;;;;;;;-0.36;73.52;100976.22;1772823;79;25536;-65
2021/03/09 07:13:39;;;;;;;26.52;12.73;;;;;;;0.06;73.15;100980.39;1789751;80;25504;-65
2021/03/09 07:16:05;;;;;;;23.38;10.25;;;;;;;0.29;72.58;100979.72;1792908;80;25579;-64
2021/03/09 07:18:35;;;;;;;24.30;10.45;;;;;;;0.52;72.14;100979.53;1759880;80;25731;-65
2021/03/09 07:21:03;;;;;;;23.05;11.60;;;;;;;0.73;71.58;100980.38;1792843;80;25607;-65
2021/03/09 07:23:32;;;;;;;21.50;11.78;;;;;;;0.93;71.26;100974.73;1792709;80;25489;-65
2021/03/09 07:26:01;;;;;;;22.20;12.03;;;;;;;1.16;70.85;100975.02;1778101;80;25514;-65
2021/03/09 07:32:52;;;;;;;22.37;12.23;;;;;;;1.48;69.02;100976.34;1769002;80;25868;-66
2021/03/09 07:35:21;;;;;;;26.73;12.63;;;;;;;1.62;68.14;100970.26;1761258;81;25583;-66
2021/03/09 07:37:51;;;;;;;29.65;14.20;;;;;;;1.83;68.05;100974.17;1760877;79;25582;-65
2021/03/09 07:40:20;;;;;;;32.23;15.23;;;;;;;2.07;67.88;100975.47;1760601;80;25585;-65
2021/03/09 07:42:47;;;;;;;28.65;14.15;;;;;;;2.33;67.67;100974.12;1772403;79;25622;-65
2021/03/09 07:45:21;;;;;;;29.55;14.70;;;;;;;2.61;66.55;100979.20;1774856;79;25727;-65
2021/03/09 07:47:54;;;;;;;25.17;14.20;;;;;;;2.99;65.59;100985.75;1771834;79;25569;-65
2021/03/09 07:50:24;;;;;;;26.85;13.90;;;;;;;3.71;65.15;100973.48;1761838;80;25536;-64
2021/03/09 07:53:08;;;;;;;;;;;;;;;4.37;63.68;100982.90;1767035;80;25558;-65
2021/03/09 07:55:38;;;;;;;26.35;12.80;;;;;;;4.74;62.04;100976.88;1773573;80;25542;-65
2021/03/09 07:58:27;;;;;;;27.22;14.90;;;;;;;5.20;61.24;100980.50;1755394;81;26914;-66
2021/03/09 08:00:59;;;;;;;29.65;15.20;;;;;;;5.67;60.80;100985.66;1754880;81;25684;-65
2021/03/09 08:03:34;;;;;;;32.90;16.57;;;;;;;6.09;59.32;100984.30;1755257;81;25682;-65
2021/03/09 08:06:11;;;;;;;28.80;15.93;;;;;;;6.30;58.35;100984.39;1772300;80;26173;-65
2021/03/09 08:08:54;;;;;;;28.65;16.70;;;;;;;6.58;57.64;100979.11;1791811;80;25587;-65
2021/03/09 08:11:26;;;;;;;24.37;13.22;;;;;;;6.88;56.43;100984.30;1790708;80;25798;-65
2021/03/09 08:14:11;;;;;;;23.38;12.30;;;;;;;7.04;55.15;100984.56;1754679;81;25685;-65
2021/03/09 08:16:42;;;;;;;20.00;10.43;;;;;;;7.16;54.76;100990.23;1791844;79;25592;-64
2021/03/09 08:19:12;;;;;;;19.62;10.40;;;;;;;7.24;53.76;100989.14;1729212;81;25563;-65
2021/03/09 08:21:46;;;;;;;19.67;9.90;;;;;;;7.27;53.64;100988.61;1726593;83;25634;-65
2021/03/09 08:24:14;;;;;;;20.48;11.18;;;;;;;7.26;52.92;100982.95;1696137;84;25795;-65
2021/03/09 08:26:44;;;;;;;15.68;9.05;;;;;;;7.19;52.89;100989.69;1731878;82;25630;-65
2021/03/09 08:29:32;;;;;;;14.40;7.20;;;;;;;7.20;52.24;100983.22;1731952;82;25630;-65
2021/03/09 08:32:35;;;;;;;16.27;10.18;;;;;;;7.19;51.37;100984.31;1726561;82;25583;-64
2021/03/09 08:35:19;;;;;;;14.38;7.80;;;;;;;7.20;51.25;100984.56;1749594;81;25711;-65
2021/03/09 08:37:49;;;;;;;16.00;7.35;;;;;;;7.41;51.01;100981.34;1756614;81;25804;-65
2021/03/09 08:40:23;;;;;;;11.60;5.95;;;;;;;7.61;51.34;100983.18;1734871;81;25618;-65
2021/03/09 08:43:07;;;;;;;12.95;6.22;;;;;;;7.88;50.52;100980.70;1781600;80;25625;-64
2021/03/09 08:45:54;;;;;;;10.60;5.70;;;;;;;8.08;50.26;100987.38;1760980;80;25614;-65
2021/03/09 08:48:46;;;;;;;13.10;6.78;;;;;;;8.13;50.49;100979.27;1770949;80;25679;-65
2021/03/09 08:51:42;;;;;;;12.60;6.28;;;;;;;8.15;50.00;100980.34;1695240;84;25827;-64
2021/03/09 08:54:25;;;;;;;14.00;6.50;;;;;;;8.04;49.96;100992.52;1695682;84;25763;-66
2021/03/09 08:56:52;;;;;;;12.58;7.25;;;;;;;7.96;49.26;100976.11;1695631;84;25649;-65
2021/03/09 08:59:25;;;;;;;12.23;6.33;;;;;;;7.84;49.06;100973.72;1695360;84;25730;-65
2021/03/09 09:02:31;;;;;;;12.35;6.28;;;;;;;7.81;49.06;100974.27;1709355;82;25680;-65
2021/03/09 09:05:04;;;;;;;10.23;5.08;;;;;;;7.72;48.20;100974.56;1710949;82;25720;-65
2021/03/09 09:07:37;;;;;;;11.95;5.28;;;;;;;7.65;48.75;100978.34;1698865;84;25663;-64
2021/03/09 09:10:23;;;;;;;9.28;5.12;;;;;;;7.69;48.91;100981.84;1688377;83;25330;-64
2021/03/09 09:12:56;;;;;;;10.28;4.87;;;;;;;7.73;48.63;100975.64;1677273;85;26287;-65
2021/03/09 09:18:09;;;;;;;10.30;4.67;;;;;;;7.20;46.85;100981.88;1815715;77;34718;-66
2021/03/09 09:20:49;;;;;;;11.55;5.35;;;;;;;6.80;46.88;100980.78;1786763;80;25553;-65
2021/03/09 09:23:30;;;;;;;9.45;4.33;;;;;;;6.33;46.33;100975.30;1786078;80;25816;-65
2021/03/09 09:25:58;;;;;;;7.90;4.65;;;;;;;5.92;46.07;100971.03;1785588;80;25701;-65
2021/03/09 09:33:01;;;;;;;9.83;5.00;;;;;;;5.79;47.59;100975.02;1784574;78;25712;-64
2021/03/09 09:35:30;;;;;;;7.50;4.00;;;;;;;5.87;48.09;100965.64;1811491;78;25327;-64
2021/03/09 09:38:07;;;;;;;11.53;4.72;;;;;;;6.05;48.29;100969.00;1745736;82;25705;-64
2021/03/09 09:40:39;;;;;;;12.73;6.80;;;;;;;6.34;48.35;100968.83;1744933;82;25425;-64
2021/03/09 09:43:15;;;;;;;7.17;4.50;;;;;;;6.68;47.94;100972.41;1747097;82;25983;-64
2021/03/09 09:45:58;;;;;;;7.17;4.25;;;;;;;6.95;47.84;100971.39;1732661;82;25439;-65
2021/03/09 09:48:28;;;;;;;4.53;2.80;;;;;;;7.22;47.13;100969.78;1735745;82;25510;-63
2021/03/09 09:51:00;;;;;;;6.15;3.22;;;;;;;7.43;46.57;100963.83;1746857;82;25965;-63
2021/03/09 09:53:45;;;;;;;11.25;4.62;;;;;;;7.62;45.51;100959.23;1745673;82;25453;-63
2021/03/09 09:56:19;;;;;;;6.08;3.42;;;;;;;7.75;45.32;100953.83;1746957;82;25328;-63
2021/03/09 09:58:57;;;;;;;8.88;4.10;;;;;;;7.89;44.95;100968.87;1741878;82;25662;-63
2021/03/09 10:01:39;;;;;;;12.35;5.20;;;;;;;7.90;44.48;100961.86;1715022;81;25695;-63
2021/03/09 10:04:08;;;;;;;5.37;3.27;;;;;;;7.98;44.31;100957.23;1722182;81;26601;-64
2021/03/09 10:06:49;;;;;;;7.25;3.33;;;;;;;7.98;43.50;100962.61;1731950;82;25600;-64
2021/03/09 10:09:23;;;;;;;6.05;3.62;;;;;;;8.03;44.00;100954.52;1711269;83;25587;-64
2021/03/09 10:12:01;;;;;;;7.33;3.08;;;;;;;8.20;43.66;100960.91;1710985;83;25598;-63
2021/03/09 10:14:32;;;;;;;7.05;3.42;;;;;;;8.44;43.60;100957.59;1711402;83;25572;-63
2021/03/09 10:17:01;;;;;;;12.95;3.90;;;;;;;8.75;43.63;100957.41;1711450;81;26968;-63
2021/03/09 10:19:37;;;;;;;6.22;3.62;;;;;;;9.05;43.46;100956.94;1739295;82;25579;-63
2021/03/09 10:22:19;;;;;;;9.10;3.65;;;;;;;9.00;42.34;100956.42;1740605;81;25631;-63
2021/03/09 10:24:47;;;;;;;7.58;3.95;;;;;;;8.81;42.43;100947.41;1740838;82;25538;-63
2021/03/09 10:27:23;;;;;;;14.25;4.65;;;;;;;8.82;42.04;100950.34;1732779;81;25519;-63
2021/03/09 10:29:58;;;;;;;10.88;4.28;;;;;;;8.60;40.76;100953.73;1730039;82;27995;-63
2021/03/09 10:36:55;;;;;;;9.38;3.95;;;;;;;8.04;41.29;100948.61;1709869;81;26438;-64
2021/03/09 10:39:24;;;;;;;6.95;3.62;;;;;;;8.50;41.23;100953.00;1719488;81;25680;-64
2021/03/09 10:41:52;;;;;;;7.75;3.45;;;;;;;8.60;41.04;100952.94;1731944;82;25205;-63
2021/03/09 10:44:52;;;;;;;7.50;3.40;;;;;;;8.77;41.39;100948.52;1731883;82;25725;-64
2021/03/09 10:47:19;;;;;;;7.00;3.47;;;;;;;8.96;40.98;100944.59;1660342;86;25376;-65
2021/03/09 10:49:46;;;;;;;6.20;3.25;;;;;;;9.19;40.45;100953.03;1632224;87;26106;-64
2021/03/09 10:52:13;;;;;;;5.92;3.52;;;;;;;9.41;40.11;100948.52;1698169;84;25585;-64
2021/03/09 10:54:40;;;;;;;10.23;3.50;;;;;;;9.61;39.96;100932.66;1694274;84;25332;-63
2021/03/09 10:57:10;;;;;;;5.83;3.60;;;;;;;9.78;40.18;100944.36;1693856;84;25769;-63
2021/03/09 10:59:52;;;;;;;10.15;5.87;;;;;;;9.87;39.87;100938.58;1693815;84;26337;-63
2021/03/09 11:02:31;;;;;;;8.03;4.78;;;;;;;9.75;38.46;100939.53;1811324;78;34708;-64
2021/03/09 11:05:06;;;;;;;6.72;3.67;;;;;;;9.65;39.01;100936.39;1796833;79;25623;-64
2021/03/09 11:07:33;;;;;;;7.87;4.40;;;;;;;9.77;38.98;100937.34;1797301;79;26154;-63
2021/03/09 11:10:03;;;;;;;7.22;3.30;;;;;;;9.71;38.37;100925.24;1784892;79;25587;-63
2021/03/09 11:12:30;;;;;;;5.05;3.12;;;;;;;9.83;38.39;100936.20;1792655;79;25532;-65
2021/03/09 11:14:57;;;;;;;6.40;3.17;;;;;;;10.02;38.10;100921.37;1796046;79;25632;-64
2021/03/09 11:17:23;;;;;;;5.65;3.22;;;;;;;10.13;37.78;100921.52;1796602;79;25628;-64
2021/03/09 11:19:50;;;;;;;10.58;3.83;;;;;;;10.10;37.32;100925.59;1796654;79;25715;-63
2021/03/09 11:22:18;;;;;;;9.58;3.40;;;;;;;10.15;37.21;100923.38;1765958;79;25866;-63
2021/03/09 11:24:45;;;;;;;6.60;3.27;;;;;;;10.23;37.22;100921.91;1764747;81;25370;-63
2021/03/09 11:27:13;;;;;;;11.33;4.22;;;;;;;10.27;37.02;100925.09;1764802;80;25513;-63
2021/03/09 11:29:41;;;;;;;6.37;3.37;;;;;;;10.35;36.96;100924.21;1764502;81;25213;-62
2021/03/09 11:32:08;;;;;;;10.82;4.25;;;;;;;10.46;36.71;100925.69;1769020;79;25714;-62
2021/03/09 11:42:07;;;;;;;4.65;2.65;;;;;;;10.54;35.08;100913.39;1435587;99;25668;-62
2021/03/09 11:44:43;;;;;;;6.77;3.20;;;;;;;10.68;35.43;100916.19;1835902;76;34584;-63
2021/03/09 11:47:10;;;;;;;5.40;3.70;;;;;;;10.78;35.65;100907.34;1821832;78;25502;-64
2021/03/09 11:49:37;;;;;;;8.13;3.05;;;;;;;10.77;34.92;100911.14;1821661;78;25682;-65
2021/03/09 11:52:42;;;;;;;;;;;;;;;;;;;;;
2021/03/09 11:55:15;;;;;;;8.53;3.58;;;;;;;10.84;34.76;100912.12;1849450;76;34696;-64
2021/03/09 11:57:42;;;;;;;;;;;;;;;10.83;34.59;100903.20;1822268;78;25252;-62
2021/03/09 12:00:10;;;;;;;6.33;3.20;;;;;;;10.91;34.27;100907.13;1819395;78;25788;-63
2021/03/09 12:02:37;;;;;;;8.55;3.17;;;;;;;10.93;32.80;100891.41;1819491;78;25265;-64
2021/03/09 12:05:07;;;;;;;8.73;3.47;;;;;;;10.93;33.89;100898.71;1818383;78;25568;-63
2021/03/09 12:07:34;;;;;;;6.53;2.95;;;;;;;11.05;34.54;100898.24;1818574;78;25564;-62
2021/03/09 12:10:00;;;;;;;7.37;3.02;;;;;;;11.09;34.20;100901.98;1818888;78;25582;-63
2021/03/09 12:12:27;;;;;;;6.03;3.17;;;;;;;11.10;34.33;100897.63;1818525;78;25750;-64
2021/03/09 12:14:56;;;;;;;6.90;3.20;;;;;;;11.09;33.27;100897.92;1817970;78;25395;-63
2021/03/09 12:17:22;;;;;;;5.92;2.87;;;;;;;10.98;33.70;100887.80;1819423;78;25477;-63
2021/03/09 12:19:51;;;;;;;4.05;2.33;;;;;;;10.87;32.87;100881.77;1818389;78;25592;-63
2021/03/09 12:22:17;;;;;;;8.43;2.55;;;;;;;10.89;32.93;100880.91;1818368;78;25576;-63
2021/03/09 12:24:44;;;;;;;5.28;2.98;;;;;;;10.91;34.02;100873.85;1818639;78;25773;-63
2021/03/09 12:27:12;;;;;;;4.42;2.40;;;;;;;10.94;33.65;100871.91;1818594;78;26192;-63